sensor_id;sensor_type;location;lat;lon;timestamp;pressure;altitude;pressure_sealevel;temperature;humidity
58739;BME280;44512;53.046;18.604;2023-02-18T00:04:20;100554.88;;;8.58;53.17
58739;BME280;44512;53.046;18.604;2023-02-18T00:14:48;100575.22;;;8.61;53.00
58739;BME280;44512;53.046;18.604;2023-02-18T00:25:16;100551.98;;;8.60;52.80
58739;BME280;44512;53.046;18.604;2023-02-18T00:35:45;100570.40;;;8.56;53.07
58739;BME280;44512;53.046;18.604;2023-02-18T00:46:14;100575.37;;;8.53;53.41
58739;BME280;44512;53.046;18.604;2023-02-18T00:56:42;100577.40;;;8.51;53.22
58739;BME280;44512;53.046;18.604;2023-02-18T01:07:10;100562.61;;;8.47;53.45
58739;BME280;44512;53.046;18.604;2023-02-18T01:17:38;100568.77;;;8.41;52.87
58739;BME280;44512;53.046;18.604;2023-02-18T01:28:09;100581.96;;;8.35;51.80
58739;BME280;44512;53.046;18.604;2023-02-18T01:38:35;100582.73;;;8.29;51.76
58739;BME280;44512;53.046;18.604;2023-02-18T01:49:04;100565.64;;;8.22;51.13
58739;BME280;44512;53.046;18.604;2023-02-18T01:59:38;100564.70;;;8.15;50.91
58739;BME280;44512;53.046;18.604;2023-02-18T02:10:00;100572.09;;;8.06;50.82
58739;BME280;44512;53.046;18.604;2023-02-18T03:12:59;100600.04;;;7.61;51.32
58739;BME280;44512;53.046;18.604;2023-02-18T03:23:24;100630.42;;;7.55;51.39
58739;BME280;44512;53.046;18.604;2023-02-18T03:33:56;100606.87;;;7.49;51.81
58739;BME280;44512;53.046;18.604;2023-02-18T03:44:15;100607.63;;;7.43;52.46
58739;BME280;44512;53.046;18.604;2023-02-18T03:54:43;100623.97;;;7.41;52.81
58739;BME280;44512;53.046;18.604;2023-02-18T04:05:12;100619.60;;;7.40;53.00
58739;BME280;44512;53.046;18.604;2023-02-18T04:15:40;100638.99;;;7.36;53.21
58739;BME280;44512;53.046;18.604;2023-02-18T04:26:09;100650.11;;;7.33;53.46
58739;BME280;44512;53.046;18.604;2023-02-18T04:36:37;100636.01;;;7.30;53.31
58739;BME280;44512;53.046;18.604;2023-02-18T04:47:06;100646.30;;;7.27;53.08
58739;BME280;44512;53.046;18.604;2023-02-18T04:57:34;100659.27;;;7.23;52.81
58739;BME280;44512;53.046;18.604;2023-02-18T05:08:02;100680.16;;;7.21;52.23
58739;BME280;44512;53.046;18.604;2023-02-18T05:18:30;100711.63;;;7.21;51.98
58739;BME280;44512;53.046;18.604;2023-02-18T05:28:59;100738.05;;;7.17;51.65
58739;BME280;44512;53.046;18.604;2023-02-18T05:39:27;100751.52;;;7.17;51.60
58739;BME280;44512;53.046;18.604;2023-02-18T05:49:56;100772.41;;;7.15;51.48
58739;BME280;44512;53.046;18.604;2023-02-18T06:00:24;100770.05;;;7.12;51.08
58739;BME280;44512;53.046;18.604;2023-02-18T06:10:52;100790.94;;;7.10;51.05
58739;BME280;44512;53.046;18.604;2023-02-18T06:21:21;100780.52;;;7.07;51.38
58739;BME280;44512;53.046;18.604;2023-02-18T06:31:50;100797.50;;;7.08;51.29
58739;BME280;44512;53.046;18.604;2023-02-18T06:42:18;100825.27;;;7.08;51.68
58739;BME280;44512;53.046;18.604;2023-02-18T06:52:46;100857.91;;;7.05;51.70
58739;BME280;44512;53.046;18.604;2023-02-18T07:03:14;100872.02;;;7.07;51.68
58739;BME280;44512;53.046;18.604;2023-02-18T07:13:43;100863.30;;;7.05;51.41
58739;BME280;44512;53.046;18.604;2023-02-18T07:24:11;100886.87;;;7.03;51.41
58739;BME280;44512;53.046;18.604;2023-02-18T07:34:40;100872.39;;;7.04;51.09
58739;BME280;44512;53.046;18.604;2023-02-18T07:45:09;100906.68;;;7.10;51.25
58739;BME280;44512;53.046;18.604;2023-02-18T07:55:37;100893.73;;;7.14;51.12
58739;BME280;44512;53.046;18.604;2023-02-18T08:06:06;100899.77;;;7.16;50.76
58739;BME280;44512;53.046;18.604;2023-02-18T08:16:33;100915.39;;;7.20;50.74
58739;BME280;44512;53.046;18.604;2023-02-18T08:27:01;100909.64;;;7.23;50.73
58739;BME280;44512;53.046;18.604;2023-02-18T08:37:30;100907.27;;;7.28;51.27
58739;BME280;44512;53.046;18.604;2023-02-18T08:47:58;100928.48;;;7.31;51.59
58739;BME280;44512;53.046;18.604;2023-02-18T08:58:26;100933.52;;;7.35;51.89
58739;BME280;44512;53.046;18.604;2023-02-18T09:08:54;100954.70;;;7.38;51.86
58739;BME280;44512;53.046;18.604;2023-02-18T09:19:23;100955.39;;;7.40;51.94
58739;BME280;44512;53.046;18.604;2023-02-18T09:35:03;100967.79;;;7.49;51.12
58739;BME280;44512;53.046;18.604;2023-02-18T09:45:31;100983.61;;;7.52;50.96
58739;BME280;44512;53.046;18.604;2023-02-18T09:55:59;100967.95;;;7.55;50.80
58739;BME280;44512;53.046;18.604;2023-02-18T10:06:33;100951.59;;;7.57;50.69
58739;BME280;44512;53.046;18.604;2023-02-18T10:16:56;100967.42;;;7.60;50.89
58739;BME280;44512;53.046;18.604;2023-02-18T10:27:29;100983.90;;;7.65;50.97
58739;BME280;44512;53.046;18.604;2023-02-18T10:58:49;100923.14;;;7.86;51.10
58739;BME280;44512;53.046;18.604;2023-02-18T11:09:27;100901.54;;;7.94;51.12
58739;BME280;44512;53.046;18.604;2023-02-18T11:19:52;100896.76;;;8.04;50.07
58739;BME280;44512;53.046;18.604;2023-02-18T11:30:21;100903.10;;;8.11;50.50
58739;BME280;44512;53.046;18.604;2023-02-18T11:40:42;100880.82;;;8.17;50.88
58739;BME280;44512;53.046;18.604;2023-02-18T11:51:22;100870.98;;;8.24;51.30
58739;BME280;44512;53.046;18.604;2023-02-18T12:01:45;100856.77;;;8.30;51.35
58739;BME280;44512;53.046;18.604;2023-02-18T12:22:45;100829.16;;;8.28;50.95
58739;BME280;44512;53.046;18.604;2023-02-18T13:15:05;100803.28;;;8.19;51.53
58739;BME280;44512;53.046;18.604;2023-02-18T13:25:26;100770.09;;;8.19;51.24
58739;BME280;44512;53.046;18.604;2023-02-18T13:36:03;100760.34;;;8.18;51.11
58739;BME280;44512;53.046;18.604;2023-02-18T13:46:23;100762.84;;;8.19;50.97
58739;BME280;44512;53.046;18.604;2023-02-18T13:57:01;100751.85;;;8.21;51.13
58739;BME280;44512;53.046;18.604;2023-02-18T14:07:27;100751.30;;;8.25;51.31
58739;BME280;44512;53.046;18.604;2023-02-18T14:17:55;100739.13;;;8.29;51.51
58739;BME280;44512;53.046;18.604;2023-02-18T14:59:43;100773.84;;;7.95;58.79
58739;BME280;44512;53.046;18.604;2023-02-18T15:10:14;100762.13;;;7.65;61.36
58739;BME280;44512;53.046;18.604;2023-02-18T15:20:39;100771.73;;;7.44;62.38
58739;BME280;44512;53.046;18.604;2023-02-18T15:31:10;100777.20;;;7.28;63.10
58739;BME280;44512;53.046;18.604;2023-02-18T15:41:35;100773.42;;;7.14;63.82
58739;BME280;44512;53.046;18.604;2023-02-18T15:52:04;100739.84;;;7.02;64.27
58739;BME280;44512;53.046;18.604;2023-02-18T16:02:32;100749.63;;;6.95;64.60
58739;BME280;44512;53.046;18.604;2023-02-18T16:13:01;100761.45;;;6.86;64.84
58739;BME280;44512;53.046;18.604;2023-02-18T16:23:35;100788.23;;;6.79;65.09
58739;BME280;44512;53.046;18.604;2023-02-18T16:33:57;100780.67;;;6.74;65.33
58739;BME280;44512;53.046;18.604;2023-02-18T16:44:25;100773.62;;;6.73;65.46
58739;BME280;44512;53.046;18.604;2023-02-18T16:54:54;100775.80;;;6.70;65.60
58739;BME280;44512;53.046;18.604;2023-02-18T17:05:28;100780.53;;;6.68;65.77
58739;BME280;44512;53.046;18.604;2023-02-18T17:15:53;100783.05;;;6.61;65.91
58739;BME280;44512;53.046;18.604;2023-02-18T17:26:25;100797.70;;;6.59;65.96
58739;BME280;44512;53.046;18.604;2023-02-18T17:36:47;100783.80;;;6.47;66.09
58739;BME280;44512;53.046;18.604;2023-02-18T17:47:16;100793.06;;;6.36;66.25
58739;BME280;44512;53.046;18.604;2023-02-18T17:57:45;100824.99;;;6.23;66.54
58739;BME280;44512;53.046;18.604;2023-02-18T18:08:13;100860.45;;;6.18;66.64
58739;BME280;44512;53.046;18.604;2023-02-18T18:18:42;100872.70;;;6.13;66.82
58739;BME280;44512;53.046;18.604;2023-02-18T18:29:09;100899.91;;;6.10;67.11
58739;BME280;44512;53.046;18.604;2023-02-18T18:39:38;100893.53;;;6.03;67.07
58739;BME280;44512;53.046;18.604;2023-02-18T18:50:07;100898.38;;;5.99;67.12
58739;BME280;44512;53.046;18.604;2023-02-18T19:00:38;100898.73;;;5.96;67.16
58739;BME280;44512;53.046;18.604;2023-02-18T19:11:03;100934.68;;;5.95;67.07
58739;BME280;44512;53.046;18.604;2023-02-18T19:21:31;100945.42;;;5.95;67.10
58739;BME280;44512;53.046;18.604;2023-02-18T19:32:00;100954.46;;;5.94;66.98
58739;BME280;44512;53.046;18.604;2023-02-18T19:42:28;100942.98;;;5.84;66.95
58739;BME280;44512;53.046;18.604;2023-02-18T19:52:57;100969.16;;;5.73;66.91
58739;BME280;44512;53.046;18.604;2023-02-18T20:03:25;100981.25;;;5.69;66.98
58739;BME280;44512;53.046;18.604;2023-02-18T20:13:53;100973.81;;;5.63;66.96
58739;BME280;44512;53.046;18.604;2023-02-18T20:24:22;100974.82;;;5.62;66.76
58739;BME280;44512;53.046;18.604;2023-02-18T20:34:50;100982.04;;;5.62;66.51
58739;BME280;44512;53.046;18.604;2023-02-18T20:45:19;100985.56;;;5.62;66.38
58739;BME280;44512;53.046;18.604;2023-02-18T20:55:47;101015.80;;;5.64;66.05
58739;BME280;44512;53.046;18.604;2023-02-18T21:06:18;101029.54;;;5.61;65.54
58739;BME280;44512;53.046;18.604;2023-02-18T21:16:44;101033.23;;;5.60;65.43
58739;BME280;44512;53.046;18.604;2023-02-18T21:27:12;101051.66;;;5.55;65.17
58739;BME280;44512;53.046;18.604;2023-02-18T21:37:41;101063.41;;;5.54;64.95
58739;BME280;44512;53.046;18.604;2023-02-18T21:48:09;101044.62;;;5.54;64.75
58739;BME280;44512;53.046;18.604;2023-02-18T21:58:37;101049.99;;;5.54;64.30
58739;BME280;44512;53.046;18.604;2023-02-18T22:09:06;101047.25;;;5.46;64.36
58739;BME280;44512;53.046;18.604;2023-02-18T22:19:34;101062.32;;;5.39;64.68
58739;BME280;44512;53.046;18.604;2023-02-18T22:30:03;101080.04;;;5.32;65.19
58739;BME280;44512;53.046;18.604;2023-02-18T22:40:32;101090.40;;;5.27;65.49
58739;BME280;44512;53.046;18.604;2023-02-18T22:51:04;101078.33;;;5.22;65.80
58739;BME280;44512;53.046;18.604;2023-02-18T23:01:30;101095.02;;;5.16;66.00
58739;BME280;44512;53.046;18.604;2023-02-18T23:11:56;101108.94;;;5.12;66.04
58739;BME280;44512;53.046;18.604;2023-02-18T23:22:28;101114.43;;;5.10;66.10
58739;BME280;44512;53.046;18.604;2023-02-18T23:32:53;101112.38;;;5.04;66.25
58739;BME280;44512;53.046;18.604;2023-02-18T23:43:21;101113.30;;;4.95;66.41
58739;BME280;44512;53.046;18.604;2023-02-18T23:53:50;101119.29;;;4.89;66.57
